Terminal Aerodrome Forecast
Issued by NWS Wilmington, OH

Current Version | Previous Version | Text Only | Print | Product List | Glossary Off
Versions: 1 2 3 4 5 6 7 8 9 10 11 12 13 14 15 16 17

000
FTUS41 KILN 272300
TAFILN
TAF
KILN 272340Z 2800/2824 20010KT P6SM BKN200
     FM281000 21012KT P6SM SCT050 BKN100
     FM281500 22012G22KT P6SM -SHRA VCTS OVC035CB
     FM281800 25015G25KT P6SM VCSH OVC018
     FM282200 26011KT P6SM SCT020 BKN100=

USA.gov is the U.S. government's official web portal to all federal, state and local government web resources and services.